Time,TemperatureF,DewpointF,PressureIn,WindDirection,WindDirectionDegrees,WindSpeedMPH,WindSpeedGustMPH,Humidity,HourlyPrecipIn,Conditions,Clouds,dailyrainin,SoftwareType,DateUTC
2013-06-04 00:01:00,55.0,51.0,30.09,NNW,343,0.0,0.0,85,0.00,,,0.00,weatherlink.com 1.10,2013-06-04 07:01:00,
2013-06-04 00:16:00,54.1,51.0,30.09,NNW,342,0.0,0.0,88,0.00,,,0.00,weatherlink.com 1.10,2013-06-04 07:16:00,
2013-06-04 00:31:00,53.5,51.0,30.09,NNW,341,0.0,0.0,90,0.00,,,0.00,weatherlink.com 1.10,2013-06-04 07:31:00,
2013-06-04 01:01:00,52.1,50.0,30.09,NNW,341,0.0,0.0,93,0.00,,,0.00,weatherlink.com 1.10,2013-06-04 08:01:00,
2013-06-04 01:16:00,52.2,50.0,30.09,NNW,341,0.0,0.0,93,0.00,,,0.00,weatherlink.com 1.10,2013-06-04 08:16:00,
2013-06-04 01:31:00,51.7,50.0,30.09,NNW,341,0.0,0.0,94,0.00,,,0.00,weatherlink.com 1.10,2013-06-04 08:31:00,
2013-06-04 01:46:00,51.4,50.0,30.09,NNW,341,0.0,0.0,94,0.00,,,0.00,weatherlink.com 1.10,2013-06-04 08:46:00,
2013-06-04 02:01:00,50.9,49.0,30.09,NNW,341,0.0,0.0,94,0.00,,,0.00,weatherlink.com 1.10,2013-06-04 09:01:00,
2013-06-04 02:16:00,50.3,49.0,30.10,NNW,341,0.0,0.0,95,0.00,,,0.00,weatherlink.com 1.10,2013-06-04 09:16:00,
2013-06-04 02:31:00,50.5,49.0,30.10,NNW,341,0.0,0.0,95,0.00,,,0.00,weatherlink.com 1.10,2013-06-04 09:31:00,
2013-06-04 02:47:00,50.4,49.0,30.10,NNW,341,0.0,0.0,96,0.00,,,0.00,weatherlink.com 1.10,2013-06-04 09:47:00,
2013-06-04 03:02:00,50.0,49.0,30.10,WNW,302,0.0,0.0,96,0.00,,,0.00,weatherlink.com 1.10,2013-06-04 10:02:00,
2013-06-04 03:17:00,49.5,48.0,30.11,West,275,0.0,0.0,96,0.00,,,0.00,weatherlink.com 1.10,2013-06-04 10:17:00,
2013-06-04 03:32:00,49.3,49.0,30.11,West,275,0.0,0.0,97,0.00,,,0.00,weatherlink.com 1.10,2013-06-04 10:32:00,
2013-06-04 03:47:00,49.0,48.0,30.11,West,276,0.0,0.0,97,0.00,,,0.00,weatherlink.com 1.10,2013-06-04 10:47:00,
2013-06-04 04:02:00,48.5,48.0,30.11,West,276,0.0,0.0,97,0.00,,,0.00,weatherlink.com 1.10,2013-06-04 11:02:00,
2013-06-04 04:17:00,48.3,48.0,30.11,West,276,0.0,0.0,97,0.00,,,0.00,weatherlink.com 1.10,2013-06-04 11:17:00,
2013-06-04 04:32:00,48.1,47.0,30.10,West,276,0.0,0.0,97,0.00,,,0.00,weatherlink.com 1.10,2013-06-04 11:32:00,
2013-06-04 04:47:00,48.0,47.0,30.11,West,275,0.0,0.0,97,0.00,,,0.00,weatherlink.com 1.10,2013-06-04 11:47:00,
2013-06-04 05:02:00,48.3,48.0,30.11,West,276,0.0,0.0,97,0.00,,,0.00,weatherlink.com 1.10,2013-06-04 12:02:00,
2013-06-04 05:17:00,47.9,47.0,30.11,West,276,0.0,0.0,97,0.00,,,0.00,weatherlink.com 1.10,2013-06-04 12:17:00,
2013-06-04 05:32:00,47.8,47.0,30.11,West,276,0.0,0.0,97,0.00,,,0.00,weatherlink.com 1.10,2013-06-04 12:32:00,
2013-06-04 05:47:00,48.3,48.0,30.11,West,275,0.0,0.0,97,0.00,,,0.00,weatherlink.com 1.10,2013-06-04 12:47:00,
2013-06-04 06:02:00,49.7,49.0,30.12,West,276,0.0,0.0,97,0.00,,,0.00,weatherlink.com 1.10,2013-06-04 13:02:00,
2013-06-04 06:17:00,51.6,51.0,30.12,West,276,0.0,0.0,97,0.00,,,0.00,weatherlink.com 1.10,2013-06-04 13:17:00,
2013-06-04 06:32:00,52.9,52.0,30.12,West,276,0.0,0.0,96,0.00,,,0.00,weatherlink.com 1.10,2013-06-04 13:32:00,
2013-06-04 06:47:00,52.8,51.0,30.12,WNW,294,0.0,0.0,93,0.00,,,0.00,weatherlink.com 1.10,2013-06-04 13:47:00,
2013-06-04 07:02:00,53.8,51.0,30.12,East,83,0.0,1.0,91,0.00,,,0.00,weatherlink.com 1.10,2013-06-04 14:02:00,
2013-06-04 07:17:00,55.0,52.0,30.12,ENE,67,1.0,2.0,90,0.00,,,0.00,weatherlink.com 1.10,2013-06-04 14:17:00,
2013-06-04 07:32:00,55.4,52.0,30.12,NNE,12,1.0,2.0,88,0.00,,,0.00,weatherlink.com 1.10,2013-06-04 14:32:00,
2013-06-04 07:47:00,56.5,53.0,30.12,NNE,27,0.0,1.0,87,0.00,,,0.00,weatherlink.com 1.10,2013-06-04 14:47:00,
2013-06-04 08:02:00,58.0,53.0,30.12,NNE,33,0.0,2.0,83,0.00,,,0.00,weatherlink.com 1.10,2013-06-04 15:02:00,
2013-06-04 08:17:00,58.6,53.0,30.12,WSW,249,1.0,1.0,82,0.00,,,0.00,weatherlink.com 1.10,2013-06-04 15:17:00,
2013-06-04 08:32:00,59.7,54.0,30.12,NE,55,1.0,3.0,80,0.00,,,0.00,weatherlink.com 1.10,2013-06-04 15:32:00,
2013-06-04 08:47:00,59.4,54.0,30.12,East,99,0.0,3.0,81,0.00,,,0.00,weatherlink.com 1.10,2013-06-04 15:47:00,
2013-06-04 09:02:00,60.9,54.0,30.13,NE,53,1.0,3.0,77,0.00,,,0.00,weatherlink.com 1.10,2013-06-04 16:02:00,
2013-06-04 09:17:00,62.1,54.0,30.12,SE,126,2.0,2.0,74,0.00,,,0.00,weatherlink.com 1.10,2013-06-04 16:17:00,
2013-06-04 09:32:00,62.8,53.0,30.12,East,83,3.0,4.0,71,0.00,,,0.00,weatherlink.com 1.10,2013-06-04 16:32:00,
2013-06-04 09:47:00,63.3,54.0,30.12,SE,129,0.0,3.0,71,0.00,,,0.00,weatherlink.com 1.10,2013-06-04 16:47:00,
2013-06-04 10:02:00,64.1,54.0,30.11,ENE,67,1.0,4.0,69,0.00,,,0.00,weatherlink.com 1.10,2013-06-04 17:02:00,
2013-06-04 10:17:00,65.8,54.0,30.11,ENE,72,1.0,3.0,67,0.00,,,0.00,weatherlink.com 1.10,2013-06-04 17:17:00,
2013-06-04 10:32:00,66.8,54.0,30.11,NNE,27,1.0,3.0,64,0.00,,,0.00,weatherlink.com 1.10,2013-06-04 17:32:00,
2013-06-04 10:48:00,67.7,55.0,30.11,East,79,0.0,4.0,63,0.00,,,0.00,weatherlink.com 1.10,2013-06-04 17:48:00,
2013-06-04 11:03:00,68.7,54.0,30.11,East,95,3.0,6.0,59,0.00,,,0.00,weatherlink.com 1.10,2013-06-04 18:03:00,
2013-06-04 11:18:00,69.3,54.0,30.11,ENE,63,2.0,5.0,58,0.00,,,0.00,weatherlink.com 1.10,2013-06-04 18:18:00,
2013-06-04 11:33:00,70.6,55.0,30.10,SW,235,0.0,3.0,59,0.00,,,0.00,weatherlink.com 1.10,2013-06-04 18:33:00,
2013-06-04 11:48:00,71.1,55.0,30.10,NNE,32,3.0,3.0,57,0.00,,,0.00,weatherlink.com 1.10,2013-06-04 18:48:00,
2013-06-04 12:03:00,71.9,55.0,30.10,NE,49,4.0,6.0,56,0.00,,,0.00,weatherlink.com 1.10,2013-06-04 19:03:00,
2013-06-04 12:18:00,71.5,53.0,30.09,ENE,72,6.0,9.0,52,0.00,,,0.00,weatherlink.com 1.10,2013-06-04 19:18:00,
2013-06-04 12:33:00,72.1,52.0,30.09,NE,46,1.0,8.0,50,0.00,,,0.00,weatherlink.com 1.10,2013-06-04 19:33:00,
2013-06-04 12:48:00,72.1,52.0,30.09,NE,51,3.0,7.0,50,0.00,,,0.00,weatherlink.com 1.10,2013-06-04 19:48:00,
2013-06-04 13:03:00,72.7,53.0,30.09,NE,41,4.0,7.0,50,0.00,,,0.00,weatherlink.com 1.10,2013-06-04 20:03:00,
2013-06-04 13:18:00,73.6,52.0,30.08,NE,46,4.0,7.0,47,0.00,,,0.00,weatherlink.com 1.10,2013-06-04 20:18:00,
2013-06-04 13:33:00,73.9,52.0,30.07,East,93,0.0,8.0,46,0.00,,,0.00,weatherlink.com 1.10,2013-06-04 20:33:00,
2013-06-04 13:48:00,74.6,53.0,30.07,NE,56,4.0,8.0,47,0.00,,,0.00,weatherlink.com 1.10,2013-06-04 20:48:00,
2013-06-04 14:03:00,74.6,52.0,30.07,NE,52,5.0,9.0,46,0.00,,,0.00,weatherlink.com 1.10,2013-06-04 21:03:00,
2013-06-04 14:18:00,74.8,53.0,30.07,North,1,3.0,5.0,46,0.00,,,0.00,weatherlink.com 1.10,2013-06-04 21:18:00,
2013-06-04 14:33:00,75.0,52.0,30.06,NE,37,6.0,9.0,44,0.00,,,0.00,weatherlink.com 1.10,2013-06-04 21:33:00,
2013-06-04 14:48:00,75.6,52.0,30.06,East,99,2.0,6.0,44,0.00,,,0.00,weatherlink.com 1.10,2013-06-04 21:48:00,
2013-06-04 15:03:00,75.8,52.0,30.05,SSE,153,4.0,6.0,44,0.00,,,0.00,weatherlink.com 1.10,2013-06-04 22:03:00,
2013-06-04 15:18:00,76.1,51.0,30.05,NE,42,3.0,7.0,42,0.00,,,0.00,weatherlink.com 1.10,2013-06-04 22:18:00,
2013-06-04 15:33:00,76.2,52.0,30.05,North,351,4.0,8.0,43,0.00,,,0.00,weatherlink.com 1.10,2013-06-04 22:33:00,
2013-06-04 15:48:00,75.8,51.0,30.05,North,5,2.0,7.0,42,0.00,,,0.00,weatherlink.com 1.10,2013-06-04 22:48:00,
2013-06-04 16:03:00,76.4,50.0,30.04,NE,36,6.0,8.0,40,0.00,,,0.00,weatherlink.com 1.10,2013-06-04 23:03:00,
2013-06-04 16:18:00,76.3,51.0,30.04,NE,36,3.0,8.0,41,0.00,,,0.00,weatherlink.com 1.10,2013-06-04 23:18:00,
2013-06-04 16:33:00,76.2,51.0,30.04,NNE,20,7.0,8.0,41,0.00,,,0.00,weatherlink.com 1.10,2013-06-04 23:33:00,
2013-06-04 16:48:00,76.6,51.0,30.03,NNE,27,2.0,9.0,41,0.00,,,0.00,weatherlink.com 1.10,2013-06-04 23:48:00,
2013-06-04 17:03:00,76.3,51.0,30.03,NE,49,4.0,7.0,42,0.00,,,0.00,weatherlink.com 1.10,2013-06-05 00:03:00,
2013-06-04 17:18:00,76.2,51.0,30.02,North,354,6.0,7.0,41,0.00,,,0.00,weatherlink.com 1.10,2013-06-05 00:18:00,
2013-06-04 17:33:00,76.1,51.0,30.02,NE,56,0.0,7.0,42,0.00,,,0.00,weatherlink.com 1.10,2013-06-05 00:33:00,
2013-06-04 17:48:00,76.0,51.0,30.02,NE,48,4.0,6.0,42,0.00,,,0.00,weatherlink.com 1.10,2013-06-05 00:48:00,
2013-06-04 18:04:00,75.6,51.0,30.02,NNE,20,2.0,8.0,43,0.00,,,0.00,weatherlink.com 1.10,2013-06-05 01:04:00,
2013-06-04 18:19:00,74.6,51.0,30.02,NNE,25,2.0,8.0,43,0.00,,,0.00,weatherlink.com 1.10,2013-06-05 01:19:00,
2013-06-04 18:34:00,73.7,50.0,30.01,NNE,25,3.0,6.0,44,0.00,,,0.00,weatherlink.com 1.10,2013-06-05 01:34:00,
2013-06-04 18:49:00,73.6,50.0,30.01,NNW,342,3.0,9.0,43,0.00,,,0.00,weatherlink.com 1.10,2013-06-05 01:49:00,
2013-06-04 19:04:00,72.9,50.0,30.01,NNE,26,2.0,7.0,45,0.00,,,0.00,weatherlink.com 1.10,2013-06-05 02:04:00,
2013-06-04 19:19:00,72.4,50.0,30.01,NNE,17,3.0,8.0,46,0.00,,,0.00,weatherlink.com 1.10,2013-06-05 02:19:00,
2013-06-04 19:34:00,71.8,51.0,30.01,NNE,33,0.0,8.0,48,0.00,,,0.00,weatherlink.com 1.10,2013-06-05 02:34:00,
2013-06-04 19:49:00,71.3,51.0,30.01,NNW,345,0.0,5.0,49,0.00,,,0.00,weatherlink.com 1.10,2013-06-05 02:49:00,
2013-06-04 20:04:00,70.9,52.0,30.01,NNE,30,3.0,4.0,51,0.00,,,0.00,weatherlink.com 1.10,2013-06-05 03:04:00,
2013-06-04 20:19:00,70.3,50.0,30.01,NNE,19,0.0,5.0,48,0.00,,,0.00,weatherlink.com 1.10,2013-06-05 03:19:00,
2013-06-04 20:34:00,69.8,49.0,30.01,NNW,348,0.0,4.0,48,0.00,,,0.00,weatherlink.com 1.10,2013-06-05 03:34:00,
2013-06-04 20:49:00,68.4,49.0,30.01,NW,318,0.0,1.0,50,0.00,,,0.00,weatherlink.com 1.10,2013-06-05 03:49:00,
2013-06-04 21:04:00,67.1,49.0,30.01,West,259,0.0,0.0,53,0.00,,,0.00,weatherlink.com 1.10,2013-06-05 04:04:00,
2013-06-04 21:19:00,65.8,49.0,30.02,West,259,0.0,0.0,55,0.00,,,0.00,weatherlink.com 1.10,2013-06-05 04:19:00,
2013-06-04 21:34:00,64.7,49.0,30.02,WSW,258,0.0,0.0,58,0.00,,,0.00,weatherlink.com 1.10,2013-06-05 04:34:00,
2013-06-04 21:49:00,63.5,50.0,30.03,WSW,257,0.0,0.0,61,0.00,,,0.00,weatherlink.com 1.10,2013-06-05 04:49:00,
2013-06-04 22:04:00,62.2,49.0,30.03,WSW,257,0.0,0.0,63,0.00,,,0.00,weatherlink.com 1.10,2013-06-05 05:04:00,
2013-06-04 22:19:00,61.3,49.0,30.03,WSW,257,0.0,0.0,65,0.00,,,0.00,weatherlink.com 1.10,2013-06-05 05:19:00,
2013-06-04 22:34:00,60.2,50.0,30.03,WSW,258,0.0,0.0,69,0.00,,,0.00,weatherlink.com 1.10,2013-06-05 05:34:00,
2013-06-04 22:49:00,58.8,50.0,30.03,WSW,257,0.0,0.0,73,0.00,,,0.00,weatherlink.com 1.10,2013-06-05 05:49:00,
2013-06-04 23:04:00,58.7,50.0,30.03,WSW,258,0.0,0.0,73,0.00,,,0.00,weatherlink.com 1.10,2013-06-05 06:04:00,
2013-06-04 23:19:00,58.0,50.0,30.03,WSW,257,0.0,0.0,74,0.00,,,0.00,weatherlink.com 1.10,2013-06-05 06:19:00,
2013-06-04 23:34:00,57.4,50.0,30.03,WSW,257,0.0,0.0,75,0.00,,,0.00,weatherlink.com 1.10,2013-06-05 06:34:00,
2013-06-04 23:49:00,57.4,51.0,30.03,WSW,258,0.0,0.0,78,0.00,,,0.00,weatherlink.com 1.10,2013-06-05 06:49:00,